This is the latest recevied weather packets stored in our database for station/object OK2ILA-10. If no packets are shown the sender has not sent any weather packets the latest 10 day(s).
| Time | Temp. | Humidity | Pressure | Rain* | Wind** | Luminosity | Snow |
|---|---|---|---|---|---|---|---|
| 1777543592 | 11.67° C | 40% | 1030.4 hPa | - | - | - | - |
| 1777543589 | 11.67° C | 40% | 1030.4 hPa | - | - | - | - |
| 1777542992 | 11.11° C | 40% | 1030.4 hPa | - | - | - | - |
| 1777542988 | 11.11° C | 40% | 1030.4 hPa | - | - | - | - |
| 1777542392 | 10° C | 40% | 1030.7 hPa | - | - | - | - |
| 1777542388 | 10° C | 40% | 1030.7 hPa | - | - | - | - |
| 1777541792 | 11.11° C | 40% | 1030.5 hPa | - | - | - | - |
| 1777541788 | 11.11° C | 40% | 1030.5 hPa | - | - | - | - |
| 1777541192 | 11.11° C | 41% | 1030.7 hPa | - | - | - | - |
| 1777541188 | 11.11° C | 41% | 1030.7 hPa | - | - | - | - |
| 1777540591 | 12.78° C | 41% | 1030.6 hPa | - | - | - | - |
| 1777540588 | 12.78° C | 41% | 1030.6 hPa | - | - | - | - |
| 1777539991 | 13.33° C | 39% | 1030.7 hPa | - | - | - | - |
| 1777539987 | 13.33° C | 39% | 1030.7 hPa | - | - | - | - |
| 1777539387 | 14.44° C | 38% | 1030.7 hPa | - | - | - | - |
| 1777538787 | 14.44° C | 39% | 1031 hPa | - | - | - | - |
| 1777538191 | 11.11° C | 43% | 1030.9 hPa | - | - | - | - |
| 1777538187 | 11.11° C | 43% | 1030.9 hPa | - | - | - | - |
| 1777537590 | 10° C | 42% | 1031 hPa | - | - | - | - |
| 1777537587 | 10° C | 42% | 1031 hPa | - | - | - | - |
| 1777536990 | 13.89° C | 38% | 1031 hPa | - | - | - | - |
| 1777536986 | 13.89° C | 38% | 1031 hPa | - | - | - | - |
| 1777536390 | 12.22° C | 39% | 1030.9 hPa | - | - | - | - |
| 1777536386 | 12.22° C | 39% | 1030.9 hPa | - | - | - | - |
| 1777535792 | 13.89° C | 39% | 1030.9 hPa | - | - | - | - |
* Rain since midnight (hover to see other rain measurements)
** Current wind speed in m/s (hover to see current wind gust speed)